Terminal Aerodrome Forecast
Issued by NWS

Home | Current Version | Previous Version | Text Only | Print | Product List | Glossary On
Versions: 1 2 3 4 5 6 7 8 9 10 11 12 13
000
FTUS44 KLIX 010520
TAFMSY
TAF
KMSY 010520Z 0106/0206 00000KT P6SM FEW250
     FM011700 07006KT P6SM FEW040
     FM011900 16007KT P6SM SCT040
     FM020100 20004KT P6SM FEW040=

USA.gov is the U.S. government's official web portal to all federal, state and local government web resources and services.